Portada
METAR-TAF:

METAR-TAF

Aeroports :

Piura, Perú

latitud: 05-11S, longitud: 080-36W, altitud: 49 m

Observació

L'informe es va fer fa 51 minuts, a les 01:00 UTC
Vent 13 kt del Sud
Temperatura 22°C
Humitat 69%
Pressió 1013 hPa
Visibilitat 10 km o més
sense núvols per sota de 1500 mi sense presència de cumulonimbus.

METAR: SPUR 170100Z 18013KT CAVOK 22/16 Q1013 RMK PP000

Hora: 20:51 (01:51 UTC)

Pronòstic

L'informe es va fer fa 2 hores i 41 minuts, a les 23:10 UTC
Pronòstic vàlid del 17 a les 00 UTC al 17 a les 24 UTC
Vent 13 kt del Oest/Sud-Oest
Visibilitat 10 km o més
sense núvols per sota de 1500 mi sense presència de cumulonimbus.
Evolucionant progressivament
l' 17 a les 03 UTC al 17 a les 05 UTC
Vent 5 kt del Sud
Evolucionant progressivament
l' 17 a les 19 UTC al 17 a les 22 UTC
Vent 13 kt del Oest/Sud-Oest

TAF: SPUR 162310Z 1700/1724 24013KT CAVOK TX28/1719Z TN17/1711Z BECMG 1703/1705 18005KT BECMG 1719/1722 24013KT

Observacions i pronòstics meteorològics de més de 4000 aeroports (METAR i TAF).

Les estacions disponibles són els punts grocs i vermells al mapa.

Posi el ratolí al punt desitjat per veure el nom de l'estació.

Feu clic per veure les observacions i els pronòstics meteorològics.

Per canviar el mapa: feu clic els botons verds amb una creu de color negre per apropar; al botó verd amb un guió per allunyar la imatge; o en les fletxes verdes per a mapes adjacents.


METAR-TAF: